createdAt,value
2019-05-05T00:00:48.796Z,81.05
2019-05-05T00:01:48.783Z,80.74
2019-05-05T00:02:48.781Z,80.94
2019-05-05T00:03:48.764Z,80.11
2019-05-05T00:04:48.752Z,81.77
2019-05-05T00:05:48.741Z,81.46
2019-05-05T00:06:48.732Z,80.26
2019-05-05T00:07:48.753Z,81.36
2019-05-05T00:08:48.708Z,81.88
2019-05-05T00:09:48.703Z,81.26
2019-05-05T00:10:48.685Z,81.40
2019-05-05T00:11:48.675Z,81.26
2019-05-05T00:12:48.667Z,81.36
2019-05-05T00:13:48.665Z,80.94
2019-05-05T00:14:48.643Z,80.67
2019-05-05T00:15:48.632Z,81.19
2019-05-05T00:16:48.620Z,79.83
2019-05-05T00:17:48.616Z,80.57
2019-05-05T00:18:48.607Z,81.19
2019-05-05T00:19:48.590Z,81.19
2019-05-05T00:20:48.577Z,81.43
2019-05-05T00:21:48.568Z,81.54
2019-05-05T00:22:48.560Z,81.23
2019-05-05T00:23:48.553Z,81.26
2019-05-05T00:24:48.534Z,81.68
2019-05-05T00:25:48.527Z,81.54
2019-05-05T00:26:48.512Z,81.54
2019-05-05T00:27:48.502Z,81.16
2019-05-05T00:28:48.505Z,81.68
2019-05-05T00:29:48.480Z,81.16
2019-05-05T00:30:48.470Z,81.68
2019-05-05T00:31:48.458Z,80.95
2019-05-05T00:32:48.448Z,81.37
2019-05-05T00:33:48.450Z,81.26
2019-05-05T00:34:48.425Z,81.51
2019-05-05T00:35:48.421Z,81.16
2019-05-05T00:36:48.403Z,81.20
2019-05-05T00:37:48.394Z,81.51
2019-05-05T00:38:48.391Z,81.41
2019-05-05T00:39:48.371Z,81.20
2019-05-05T00:40:48.361Z,82.14
2019-05-05T00:41:48.354Z,81.72
2019-05-05T00:42:48.340Z,81.30
2019-05-05T00:43:48.337Z,81.30
2019-05-05T00:44:48.318Z,81.30
2019-05-05T00:45:48.307Z,81.30
2019-05-05T00:46:48.300Z,81.55
2019-05-05T00:47:48.285Z,81.23
2019-05-05T00:48:48.288Z,81.55
2019-05-05T00:49:49.466Z,81.65
2019-05-05T00:50:48.252Z,81.20
2019-05-05T00:51:48.252Z,81.96
2019-05-05T00:52:48.232Z,82.28
2019-05-05T00:53:48.232Z,81.96
2019-05-05T00:54:48.209Z,82.07
2019-05-05T00:55:48.199Z,81.51
2019-05-05T00:56:48.187Z,81.41
2019-05-05T00:57:48.177Z,81.45
2019-05-05T00:58:48.205Z,81.13
2019-05-05T00:59:48.155Z,81.34
2019-05-05T01:00:48.146Z,81.86
2019-05-05T01:01:48.134Z,81.90
2019-05-05T01:02:48.123Z,81.86
2019-05-05T01:03:48.112Z,81.76
2019-05-05T01:04:48.118Z,81.79
2019-05-05T01:05:48.092Z,82.17
2019-05-05T01:06:48.081Z,81.86
2019-05-05T01:07:48.071Z,82.00
2019-05-05T01:08:48.061Z,81.96
2019-05-05T01:09:48.063Z,82.07
2019-05-05T01:10:48.043Z,81.96
2019-05-05T01:11:48.031Z,81.65
2019-05-05T01:12:48.018Z,81.96
2019-05-05T01:13:48.008Z,81.79
2019-05-05T01:14:48.006Z,82.21
2019-05-05T01:15:47.988Z,82.31
2019-05-05T01:16:47.979Z,83.15
2019-05-05T01:17:47.968Z,83.57
2019-05-05T01:18:47.956Z,83.25
2019-05-05T01:20:00.252Z,83.04
2019-05-05T01:20:48.934Z,83.67
2019-05-05T01:21:47.925Z,84.19
2019-05-05T01:22:47.917Z,83.88
2019-05-05T01:23:47.906Z,84.50
2019-05-05T01:24:47.932Z,84.99
2019-05-05T01:25:48.768Z,85.10
2019-05-05T01:26:47.874Z,85.10
2019-05-05T01:27:47.862Z,85.20
2019-05-05T01:28:47.855Z,84.47
2019-05-05T01:29:47.845Z,84.43
2019-05-05T01:30:47.843Z,83.74
2019-05-05T01:31:47.822Z,83.11
2019-05-05T01:32:47.813Z,82.59
2019-05-05T01:33:47.801Z,82.90
2019-05-05T01:34:47.794Z,82.90
2019-05-05T01:35:47.787Z,83.15
2019-05-05T01:36:47.767Z,83.04
2019-05-05T01:37:47.757Z,83.25
2019-05-05T01:38:47.748Z,83.25
2019-05-05T01:39:47.739Z,83.04
2019-05-05T01:40:47.765Z,82.94
2019-05-05T01:41:47.716Z,83.15
2019-05-05T01:42:47.708Z,83.36
2019-05-05T01:43:47.696Z,83.50
2019-05-05T01:44:47.688Z,83.61
2019-05-05T01:45:47.673Z,83.81
2019-05-05T01:46:47.675Z,84.12
2019-05-05T01:47:47.650Z,83.81
2019-05-05T01:48:47.643Z,84.65
2019-05-05T01:49:47.630Z,84.55
2019-05-05T01:50:47.626Z,84.75
2019-05-05T01:51:47.618Z,84.23
2019-05-05T01:52:47.599Z,84.02
2019-05-05T01:53:47.590Z,84.69
2019-05-05T01:54:47.577Z,83.81
2019-05-05T01:55:47.567Z,83.85
2019-05-05T01:56:47.566Z,84.48
2019-05-05T01:57:47.546Z,84.58
2019-05-05T01:58:47.535Z,84.34
2019-05-05T01:59:47.526Z,84.58
2019-05-05T02:00:47.516Z,84.38
2019-05-05T02:01:47.514Z,84.17
2019-05-05T02:02:47.495Z,84.38
2019-05-05T02:03:47.483Z,83.75
2019-05-05T02:04:47.475Z,83.75
2019-05-05T02:05:47.464Z,84.17
2019-05-05T02:06:47.462Z,84.27
2019-05-05T02:07:47.441Z,84.17
2019-05-05T02:08:47.431Z,84.27
2019-05-05T02:09:47.420Z,84.06
2019-05-05T02:10:47.409Z,84.27
2019-05-05T02:11:47.422Z,83.75
2019-05-05T02:12:47.389Z,83.95
2019-05-05T02:13:47.377Z,84.17
2019-05-05T02:14:47.368Z,84.27
2019-05-05T02:15:47.361Z,84.27
2019-05-05T02:16:47.351Z,83.95
2019-05-05T02:17:47.343Z,83.85
2019-05-05T02:18:47.325Z,83.85
2019-05-05T02:19:47.314Z,83.75
2019-05-05T02:20:47.303Z,83.95
2019-05-05T02:21:47.296Z,83.95
2019-05-05T02:22:47.291Z,83.54
2019-05-05T02:23:47.271Z,83.95
2019-05-05T02:24:47.260Z,83.75
2019-05-05T02:25:47.251Z,83.64
2019-05-05T02:26:47.242Z,83.85
2019-05-05T02:27:47.237Z,83.85
2019-05-05T02:28:47.218Z,83.75
2019-05-05T02:29:47.209Z,83.95
2019-05-05T02:30:47.204Z,83.85
2019-05-05T02:31:47.206Z,83.85
2019-05-05T02:32:47.185Z,83.85
2019-05-05T02:33:47.169Z,83.95
2019-05-05T02:34:47.166Z,84.00
2019-05-05T02:35:47.148Z,83.89
2019-05-05T02:36:47.136Z,84.00
2019-05-05T02:37:47.145Z,84.00
2019-05-05T02:38:47.125Z,84.41
2019-05-05T02:39:58.056Z,84.41
2019-05-05T02:40:48.092Z,84.73
2019-05-05T02:41:47.084Z,85.29
2019-05-05T02:42:47.083Z,85.46
2019-05-05T02:43:47.066Z,85.35
2019-05-05T02:44:47.053Z,85.67
2019-05-05T02:45:47.042Z,84.77
2019-05-05T02:46:47.030Z,84.83
2019-05-05T02:47:47.035Z,84.66
2019-05-05T02:48:47.011Z,84.00
2019-05-05T02:49:47.004Z,84.66
2019-05-05T02:50:55.680Z,84.45
2019-05-05T02:51:47.980Z,84.62
2019-05-05T02:52:46.999Z,84.62
2019-05-05T02:53:46.956Z,84.34
2019-05-05T02:54:46.946Z,84.45
2019-05-05T02:55:46.936Z,84.77
2019-05-05T02:56:46.927Z,84.56
2019-05-05T02:57:46.918Z,84.45
2019-05-05T02:58:46.913Z,84.73
2019-05-05T02:59:46.894Z,84.31
2019-05-05T03:00:46.884Z,83.68
2019-05-05T03:01:46.875Z,83.68
2019-05-05T03:02:46.863Z,83.37
2019-05-05T03:03:46.866Z,83.68
2019-05-05T03:04:46.843Z,83.68
2019-05-05T03:05:46.834Z,83.89
2019-05-05T03:06:46.823Z,83.78
2019-05-05T03:07:46.811Z,83.68
2019-05-05T03:08:46.812Z,83.68
2019-05-05T03:09:46.791Z,83.68
2019-05-05T03:10:46.781Z,83.78
2019-05-05T03:11:46.773Z,83.68
2019-05-05T03:12:46.761Z,83.37
2019-05-05T03:13:46.760Z,83.37
2019-05-05T03:14:46.742Z,83.47
2019-05-05T03:15:46.732Z,83.37
2019-05-05T03:16:46.719Z,83.37
2019-05-05T03:17:46.708Z,83.58
2019-05-05T03:18:46.709Z,83.68
2019-05-05T03:19:46.692Z,83.37
2019-05-05T03:20:46.677Z,83.37
2019-05-05T03:21:46.668Z,83.40
2019-05-05T03:22:46.657Z,83.78
2019-05-05T03:23:46.655Z,84.10
2019-05-05T03:24:46.636Z,83.72
2019-05-05T03:25:46.627Z,84.00
2019-05-05T03:26:46.615Z,83.89
2019-05-05T03:27:46.605Z,83.78
2019-05-05T03:28:46.604Z,84.14
2019-05-05T03:29:46.585Z,83.83
2019-05-05T03:30:46.575Z,84.24
2019-05-05T03:31:46.564Z,84.00
2019-05-05T03:32:46.556Z,83.62
2019-05-05T03:33:46.560Z,84.31
2019-05-05T03:34:46.540Z,83.89
2019-05-05T03:35:46.526Z,83.78
2019-05-05T03:36:46.511Z,83.78
2019-05-05T03:37:46.505Z,83.78
2019-05-05T03:38:46.543Z,83.78
2019-05-05T03:39:46.482Z,83.44
2019-05-05T03:40:46.470Z,83.47
2019-05-05T03:41:46.461Z,83.26
2019-05-05T03:42:46.452Z,83.23
2019-05-05T03:43:46.440Z,83.16
2019-05-05T03:44:46.438Z,83.47
2019-05-05T03:45:46.418Z,82.50
2019-05-05T03:46:46.409Z,82.39
2019-05-05T03:47:46.398Z,82.29
2019-05-05T03:48:46.387Z,82.29
2019-05-05T03:49:46.394Z,82.39
2019-05-05T03:50:46.367Z,82.70
2019-05-05T03:51:46.358Z,82.04
2019-05-05T03:52:46.346Z,81.76
2019-05-05T03:53:46.336Z,81.34
2019-05-05T03:54:46.334Z,79.84
2019-05-05T03:55:46.316Z,78.80
2019-05-05T03:56:46.307Z,78.69
2019-05-05T03:57:46.292Z,78.73
2019-05-05T03:58:46.283Z,78.83
2019-05-05T03:59:46.279Z,79.67
2019-05-05T04:00:46.261Z,79.98
2019-05-05T04:01:46.252Z,79.57
2019-05-05T04:02:46.238Z,78.56
2019-05-05T04:03:46.229Z,78.77
2019-05-05T04:04:46.228Z,77.69
2019-05-05T04:05:46.205Z,76.54
2019-05-05T04:06:46.199Z,74.36
2019-05-05T04:07:46.184Z,72.17
2019-05-05T04:08:46.174Z,72.07
2019-05-05T04:09:46.180Z,72.63
2019-05-05T04:10:46.157Z,73.11
2019-05-05T04:11:46.143Z,74.60
2019-05-05T04:12:46.134Z,75.36
2019-05-05T04:13:46.121Z,75.57
2019-05-05T04:14:46.127Z,75.85
2019-05-05T04:15:46.102Z,75.29
2019-05-05T04:16:46.091Z,74.49
2019-05-05T04:17:46.079Z,75.57
2019-05-05T04:18:46.071Z,76.51
2019-05-05T04:19:46.069Z,76.65
2019-05-05T04:20:46.049Z,76.82
2019-05-05T04:21:46.037Z,75.74
2019-05-05T04:22:46.026Z,76.09
2019-05-05T04:23:46.017Z,76.82
2019-05-05T04:24:46.014Z,76.96
2019-05-05T04:25:45.997Z,77.48
2019-05-05T04:26:45.984Z,78.14
2019-05-05T04:27:45.973Z,78.87
2019-05-05T04:28:45.964Z,78.34
2019-05-05T04:29:45.965Z,78.42
2019-05-05T04:30:45.944Z,78.66
2019-05-05T04:31:45.933Z,79.28
2019-05-05T04:32:45.926Z,79.77
2019-05-05T04:33:45.911Z,79.66
2019-05-05T04:34:45.912Z,79.77
2019-05-05T04:35:45.891Z,79.25
2019-05-05T04:36:45.879Z,78.38
2019-05-05T04:37:45.870Z,78.73
2019-05-05T04:38:45.859Z,79.21
2019-05-05T04:39:45.898Z,78.28
2019-05-05T04:40:45.837Z,78.28
2019-05-05T04:41:45.826Z,78.52
2019-05-05T04:42:45.816Z,76.26
2019-05-05T04:43:45.808Z,72.56
2019-05-05T04:44:45.795Z,68.16
2019-05-05T04:45:45.793Z,64.67
2019-05-05T04:46:45.773Z,62.59
2019-05-05T04:47:45.765Z,59.42
2019-05-05T04:48:45.754Z,57.79
2019-05-05T04:49:45.741Z,56.30
2019-05-05T04:50:45.739Z,54.79
2019-05-05T04:51:49.964Z,53.33
2019-05-05T04:52:45.708Z,52.78
2019-05-05T04:53:45.701Z,51.73
2019-05-05T04:54:45.688Z,50.66
2019-05-05T04:55:45.685Z,50.41
2019-05-05T04:56:45.665Z,48.77
2019-05-05T04:57:45.655Z,48.34
2019-05-05T04:58:45.644Z,47.99
2019-05-05T04:59:45.633Z,47.56
2019-05-05T05:00:45.632Z,47.03
2019-05-05T05:01:45.613Z,47.42
2019-05-05T05:02:45.601Z,45.48
2019-05-05T05:03:45.590Z,46.09
2019-05-05T05:04:45.580Z,45.36
2019-05-05T05:05:45.578Z,45.75
2019-05-05T05:06:45.564Z,45.93
2019-05-05T05:07:45.548Z,44.67
2019-05-05T05:08:45.538Z,44.26
2019-05-05T05:09:45.528Z,44.34
2019-05-05T05:10:45.530Z,44.74
2019-05-05T05:11:45.506Z,43.84
2019-05-05T05:12:45.496Z,44.32
2019-05-05T05:13:45.486Z,43.79
2019-05-05T05:14:45.473Z,43.06
2019-05-05T05:15:45.503Z,42.46
2019-05-05T05:16:45.454Z,42.84
2019-05-05T05:17:45.443Z,41.63
2019-05-05T05:18:45.437Z,41.50
2019-05-05T05:19:45.422Z,41.09
2019-05-05T05:20:45.412Z,42.90
2019-05-05T05:21:58.255Z,44.04
2019-05-05T05:22:46.397Z,43.61
2019-05-05T05:23:45.383Z,42.51
2019-05-05T05:24:45.373Z,44.36
2019-05-05T05:25:45.361Z,44.28
2019-05-05T05:26:45.360Z,45.70
2019-05-05T05:27:45.339Z,44.10
2019-05-05T05:28:45.333Z,45.64
2019-05-05T05:29:45.319Z,46.51
2019-05-05T05:30:45.310Z,44.87
2019-05-05T05:31:45.308Z,43.79
2019-05-05T05:32:45.295Z,43.26
2019-05-05T05:33:45.281Z,42.63
2019-05-05T05:34:45.271Z,41.74
2019-05-05T05:35:45.262Z,42.82
2019-05-05T05:36:45.264Z,42.60
2019-05-05T05:37:45.240Z,41.66
2019-05-05T05:38:45.229Z,40.31
2019-05-05T05:39:45.221Z,39.89
2019-05-05T05:40:45.209Z,40.37
2019-05-05T05:41:45.211Z,39.37
2019-05-05T05:42:45.193Z,39.17
2019-05-05T05:43:45.183Z,40.03
2019-05-05T05:44:45.170Z,39.21
2019-05-05T05:45:45.161Z,38.18
2019-05-05T05:46:45.160Z,37.98
2019-05-05T05:47:45.141Z,37.26
2019-05-05T05:48:45.794Z,37.56
2019-05-05T05:49:45.123Z,37.07
2019-05-05T05:50:45.112Z,38.08
2019-05-05T05:51:45.136Z,37.74
2019-05-05T05:52:45.092Z,37.73
2019-05-05T05:53:45.082Z,36.92
2019-05-05T05:54:45.072Z,36.92
2019-05-05T05:55:45.065Z,37.43
2019-05-05T05:56:45.055Z,36.58
2019-05-05T05:57:45.055Z,35.90
2019-05-05T05:58:45.036Z,36.50
2019-05-05T05:59:45.027Z,36.82
2019-05-05T06:00:45.024Z,36.80
2019-05-05T06:01:45.010Z,35.50
2019-05-05T06:02:45.006Z,36.50
2019-05-05T06:03:44.992Z,36.79
2019-05-05T06:04:44.980Z,36.27
2019-05-05T06:05:44.981Z,35.25
2019-05-05T06:06:44.961Z,35.77
2019-05-05T06:07:44.958Z,36.20
2019-05-05T06:08:44.940Z,35.28
2019-05-05T06:09:44.933Z,35.58
2019-05-05T06:10:44.922Z,35.90
2019-05-05T06:11:44.912Z,37.12
2019-05-05T06:12:45.105Z,36.72
2019-05-05T06:13:47.477Z,36.82
2019-05-05T06:14:44.885Z,35.90
2019-05-05T06:15:44.874Z,36.38
2019-05-05T06:16:44.863Z,35.57
2019-05-05T06:17:44.862Z,36.29
2019-05-05T06:18:44.850Z,35.98
2019-05-05T06:19:44.835Z,35.78
2019-05-05T06:20:44.826Z,36.40
2019-05-05T06:21:44.815Z,36.22
2019-05-05T06:22:44.817Z,37.02
2019-05-05T06:23:44.799Z,36.80
2019-05-05T06:24:44.788Z,36.27
2019-05-05T06:25:44.974Z,35.35
2019-05-05T06:26:44.773Z,36.47
2019-05-05T06:27:44.769Z,36.25
2019-05-05T06:28:44.916Z,35.85
2019-05-05T06:29:44.743Z,35.53
2019-05-05T06:30:44.733Z,35.01
2019-05-05T06:31:44.905Z,35.14
2019-05-05T06:32:45.726Z,35.57
2019-05-05T06:33:44.703Z,35.46
2019-05-05T06:34:44.694Z,36.75
2019-05-05T06:35:44.684Z,36.08
2019-05-05T06:36:44.675Z,37.52
2019-05-05T06:37:46.692Z,36.74
2019-05-05T06:38:44.656Z,37.54
2019-05-05T06:39:44.647Z,37.30
2019-05-05T06:40:44.637Z,36.99
2019-05-05T06:41:44.629Z,35.86
2019-05-05T06:42:44.618Z,36.05
2019-05-05T06:43:44.620Z,35.13
2019-05-05T06:44:44.602Z,34.69
2019-05-05T06:45:44.593Z,35.10
2019-05-05T06:46:44.665Z,35.19
2019-05-05T06:47:44.611Z,35.39
2019-05-05T06:48:44.572Z,34.89
2019-05-05T06:49:44.552Z,35.21
2019-05-05T06:50:44.543Z,35.91
2019-05-05T06:51:44.533Z,34.99
2019-05-05T06:52:47.052Z,34.99
2019-05-05T06:53:44.524Z,35.10
2019-05-05T06:54:44.503Z,35.50
2019-05-05T06:55:44.547Z,34.38
2019-05-05T06:56:44.574Z,35.60
2019-05-05T06:57:44.530Z,35.19
2019-05-05T06:58:44.953Z,35.43
2019-05-05T06:59:44.454Z,36.10
2019-05-05T07:00:44.443Z,37.39
2019-05-05T07:01:44.435Z,37.19
2019-05-05T07:02:44.561Z,36.77
2019-05-05T07:03:44.425Z,36.15
2019-05-05T07:04:44.684Z,36.03
2019-05-05T07:05:44.394Z,35.82
2019-05-05T07:06:53.848Z,35.69
2019-05-05T07:07:45.374Z,35.39
2019-05-05T07:08:44.373Z,35.61
2019-05-05T07:09:44.465Z,35.51
2019-05-05T07:10:44.574Z,35.93
2019-05-05T07:11:44.332Z,35.93
2019-05-05T07:12:44.321Z,35.25
2019-05-05T07:13:44.467Z,35.77
2019-05-05T07:14:44.671Z,35.68
2019-05-05T07:15:44.293Z,36.38
2019-05-05T07:16:44.280Z,36.38
2019-05-05T07:17:44.391Z,36.49
2019-05-05T07:18:44.706Z,35.88
2019-05-05T07:19:44.984Z,36.50
2019-05-05T07:20:44.239Z,36.20
2019-05-05T07:21:44.228Z,36.82
2019-05-05T07:22:58.439Z,37.23
2019-05-05T07:23:45.216Z,37.12
2019-05-05T07:24:44.198Z,37.74
2019-05-05T07:25:45.971Z,37.95
2019-05-05T07:26:44.742Z,38.35
2019-05-05T07:27:44.391Z,37.98
2019-05-05T07:28:44.849Z,38.40
2019-05-05T07:29:44.146Z,39.03
2019-05-05T07:30:44.352Z,39.35
2019-05-05T07:31:44.122Z,39.55
2019-05-05T07:32:44.360Z,38.04
2019-05-05T07:33:44.111Z,39.57
2019-05-05T07:34:44.106Z,39.47
2019-05-05T07:35:55.500Z,39.26
2019-05-05T07:36:45.071Z,40.61
2019-05-05T07:37:44.059Z,40.86
2019-05-05T07:38:44.322Z,41.56
2019-05-05T07:39:44.636Z,40.19
2019-05-05T07:40:44.048Z,41.40
2019-05-05T07:41:44.790Z,41.32
2019-05-05T07:42:44.154Z,42.25
2019-05-05T07:43:43.996Z,41.44
2019-05-05T07:44:44.174Z,42.55
2019-05-05T07:45:44.864Z,43.77
2019-05-05T07:46:44.117Z,42.35
2019-05-05T07:47:47.185Z,42.88
2019-05-05T07:48:44.305Z,42.69
2019-05-05T07:49:44.197Z,44.42
2019-05-05T07:50:58.166Z,43.69
2019-05-05T07:51:44.935Z,42.51
2019-05-05T07:52:43.971Z,43.12
2019-05-05T07:53:44.397Z,45.58
2019-05-05T07:54:43.885Z,44.26
2019-05-05T07:55:43.868Z,42.43
2019-05-05T07:56:44.498Z,44.38
2019-05-05T07:57:43.844Z,44.08
2019-05-05T07:58:44.035Z,43.44
2019-05-05T07:59:44.998Z,44.36
2019-05-05T08:00:43.843Z,44.18
2019-05-05T08:01:46.508Z,44.59
2019-05-05T08:02:44.010Z,43.98
2019-05-05T08:03:44.550Z,44.48
2019-05-05T08:04:43.879Z,44.20
2019-05-05T08:05:44.303Z,41.66
2019-05-05T08:06:44.541Z,43.49
2019-05-05T08:07:44.653Z,43.59
2019-05-05T08:08:44.457Z,44.10
2019-05-05T08:09:44.493Z,42.57
2019-05-05T08:10:43.919Z,42.07
2019-05-05T08:11:43.723Z,42.05
2019-05-05T08:12:43.811Z,42.25
2019-05-05T08:13:44.291Z,42.96
2019-05-05T08:14:44.401Z,42.55
2019-05-05T08:15:56.308Z,42.77
2019-05-05T08:16:44.639Z,44.20
2019-05-05T08:17:44.765Z,42.57
2019-05-05T08:18:43.890Z,43.90
2019-05-05T08:19:43.980Z,44.10
2019-05-05T08:20:44.349Z,45.21
2019-05-05T08:21:43.817Z,44.10
2019-05-05T08:22:44.351Z,44.68
2019-05-05T08:23:44.743Z,43.57
2019-05-05T08:24:44.027Z,44.08
2019-05-05T08:25:45.373Z,44.30
2019-05-05T08:26:44.218Z,43.99
2019-05-05T08:27:44.673Z,41.58
2019-05-05T08:28:43.534Z,43.23
2019-05-05T08:29:43.866Z,44.36
2019-05-05T08:30:44.162Z,44.46
2019-05-05T08:31:44.287Z,45.18
2019-05-05T08:32:43.711Z,42.04
2019-05-05T08:33:44.194Z,41.43
2019-05-05T08:34:56.621Z,42.90
2019-05-05T08:35:44.964Z,43.53
2019-05-05T08:36:44.645Z,44.14
2019-05-05T08:37:43.639Z,44.32
2019-05-05T08:38:44.132Z,44.43
2019-05-05T08:39:44.700Z,44.10
2019-05-05T08:40:43.994Z,44.20
2019-05-05T08:41:45.401Z,45.50
2019-05-05T08:42:44.552Z,46.30
2019-05-05T08:43:44.067Z,44.54
2019-05-05T08:44:44.719Z,44.54
2019-05-05T08:45:44.401Z,43.51
2019-05-05T08:46:44.606Z,43.20
2019-05-05T08:47:43.636Z,43.79
2019-05-05T08:48:44.706Z,41.35
2019-05-05T08:49:44.262Z,39.40
2019-05-05T08:50:43.905Z,40.03
2019-05-05T08:51:44.306Z,40.42
2019-05-05T08:52:44.455Z,40.34
2019-05-05T08:53:47.878Z,40.42
2019-05-05T08:54:44.762Z,40.70
2019-05-05T08:55:44.330Z,39.89
2019-05-05T08:56:44.732Z,39.59
2019-05-05T08:57:44.689Z,39.49
2019-05-05T08:58:43.784Z,38.47
2019-05-05T08:59:43.967Z,38.57
2019-05-05T09:00:44.369Z,37.88
2019-05-05T09:01:44.893Z,39.40
2019-05-05T09:02:43.767Z,38.07
2019-05-05T09:03:44.320Z,38.47
2019-05-05T09:04:44.708Z,39.40
2019-05-05T09:05:43.860Z,39.93
2019-05-05T09:06:43.771Z,40.64
2019-05-05T09:07:44.157Z,40.95
2019-05-05T09:08:44.177Z,40.72
2019-05-05T09:09:44.173Z,40.50
2019-05-05T09:10:44.775Z,39.47
2019-05-05T09:11:43.817Z,38.76
2019-05-05T09:12:43.681Z,38.56
2019-05-05T09:13:44.705Z,38.25
2019-05-05T09:14:44.915Z,36.53
2019-05-05T09:15:44.298Z,37.73
2019-05-05T09:16:44.778Z,36.30
2019-05-05T09:17:44.014Z,38.12
2019-05-05T09:18:44.220Z,38.52
2019-05-05T09:19:44.896Z,37.89
2019-05-05T09:20:44.579Z,37.38
2019-05-05T09:21:44.741Z,37.30
2019-05-05T09:22:44.589Z,37.51
2019-05-05T09:23:58.169Z,36.08
2019-05-05T09:24:44.558Z,36.49
2019-05-05T09:25:44.640Z,38.12
2019-05-05T09:26:43.756Z,37.81
2019-05-05T09:27:44.260Z,39.92
2019-05-05T09:28:44.573Z,37.07
2019-05-05T09:29:43.932Z,35.99
2019-05-05T09:30:44.373Z,34.36
2019-05-05T09:31:44.941Z,35.61
2019-05-05T09:32:43.889Z,35.63
2019-05-05T09:33:44.243Z,36.17
2019-05-05T09:34:43.588Z,37.30
2019-05-05T09:35:43.711Z,38.63
2019-05-05T09:36:43.967Z,39.78
2019-05-05T09:37:44.343Z,38.76
2019-05-05T09:38:44.585Z,39.29
2019-05-05T09:39:43.663Z,40.12
2019-05-05T09:40:43.983Z,40.84
2019-05-05T09:41:44.587Z,40.45
2019-05-05T09:42:44.279Z,40.25
2019-05-05T09:43:44.567Z,40.14
2019-05-05T09:44:43.813Z,40.25
2019-05-05T09:45:44.169Z,40.66
2019-05-05T09:46:44.515Z,40.86
2019-05-05T09:47:44.865Z,42.90
2019-05-05T09:48:44.010Z,40.33
2019-05-05T09:49:44.602Z,42.13
2019-05-05T09:50:43.660Z,39.66
2019-05-05T09:51:43.981Z,40.77
2019-05-05T09:52:44.332Z,39.62
2019-05-05T09:53:44.624Z,38.39
2019-05-05T09:54:43.876Z,36.76
2019-05-05T09:55:44.341Z,34.72
2019-05-05T09:56:44.429Z,34.11
2019-05-05T09:57:43.819Z,34.60
2019-05-05T09:58:44.038Z,34.48
2019-05-05T09:59:44.101Z,33.77
2019-05-05T10:00:44.165Z,33.99
2019-05-05T10:01:44.486Z,34.41
2019-05-05T10:02:44.161Z,36.25
2019-05-05T10:03:44.230Z,35.99
2019-05-05T10:04:44.105Z,37.21
2019-05-05T10:05:42.468Z,36.49
2019-05-05T10:06:45.727Z,36.82
2019-05-05T10:07:44.034Z,37.71
2019-05-05T10:08:44.499Z,38.14
2019-05-05T10:09:43.770Z,38.56
2019-05-05T10:10:44.291Z,37.77
2019-05-05T10:11:44.813Z,38.99
2019-05-05T10:12:44.373Z,39.11
2019-05-05T10:13:44.261Z,38.90
2019-05-05T10:14:44.746Z,37.85
2019-05-05T10:15:44.309Z,37.63
2019-05-05T10:16:42.348Z,38.02
2019-05-05T10:17:42.344Z,35.44
2019-05-05T10:18:42.327Z,35.63
2019-05-05T10:19:44.022Z,35.63
2019-05-05T10:20:42.308Z,34.92
2019-05-05T10:21:44.205Z,35.44
2019-05-05T10:22:43.812Z,32.99
2019-05-05T10:23:43.598Z,33.69
2019-05-05T10:24:44.230Z,33.87
2019-05-05T10:25:44.538Z,34.26
2019-05-05T10:26:43.797Z,35.68
2019-05-05T10:27:47.000Z,34.77
2019-05-05T10:28:44.456Z,31.63
2019-05-05T10:29:44.100Z,32.64
2019-05-05T10:30:42.200Z,32.82
2019-05-05T10:31:43.701Z,31.63
2019-05-05T10:32:43.776Z,32.03
2019-05-05T10:33:42.176Z,32.44
2019-05-05T10:34:43.919Z,31.52
2019-05-05T10:35:43.745Z,31.83
2019-05-05T10:36:44.169Z,30.50
2019-05-05T10:37:43.891Z,29.99
2019-05-05T10:38:42.110Z,31.90
2019-05-05T10:39:43.896Z,32.79
2019-05-05T10:40:44.427Z,34.00
2019-05-05T10:41:44.058Z,33.40
2019-05-05T10:42:44.193Z,34.13
2019-05-05T10:43:43.723Z,32.84
2019-05-05T10:44:42.047Z,33.87
2019-05-05T10:45:43.911Z,33.58
2019-05-05T10:46:42.027Z,34.41
2019-05-05T10:47:43.989Z,34.52
2019-05-05T10:48:42.013Z,34.11
2019-05-05T10:49:43.992Z,34.12
2019-05-05T10:50:44.279Z,33.11
2019-05-05T10:51:43.835Z,32.40
2019-05-05T10:52:44.157Z,34.09
2019-05-05T10:53:43.830Z,31.24
2019-05-05T10:54:44.838Z,32.25
2019-05-05T10:55:41.932Z,34.75
2019-05-05T10:56:41.924Z,30.68
2019-05-05T10:57:43.607Z,32.51
2019-05-05T10:58:43.996Z,32.61
2019-05-05T10:59:43.530Z,32.02
2019-05-05T11:00:44.120Z,32.23
2019-05-05T11:01:41.875Z,32.06
2019-05-05T11:02:41.855Z,32.59
2019-05-05T11:03:41.858Z,32.29
2019-05-05T11:04:44.018Z,32.51
2019-05-05T11:05:41.825Z,33.14
2019-05-05T11:06:43.699Z,34.56
2019-05-05T11:07:41.802Z,34.88
2019-05-05T11:08:41.802Z,35.58
2019-05-05T11:09:41.783Z,35.48
2019-05-05T11:10:41.770Z,35.07
2019-05-05T11:11:43.755Z,32.62
2019-05-05T11:12:41.750Z,34.26
2019-05-05T11:13:45.013Z,34.58
2019-05-05T11:14:41.727Z,35.90
2019-05-05T11:15:43.982Z,33.87
2019-05-05T11:16:43.750Z,34.68
2019-05-05T11:17:43.807Z,35.60
2019-05-05T11:18:41.694Z,34.17
2019-05-05T11:19:41.673Z,35.49
2019-05-05T11:20:41.664Z,35.21
2019-05-05T11:21:43.576Z,34.80
2019-05-05T11:22:43.711Z,35.51
2019-05-05T11:23:41.636Z,36.14
2019-05-05T11:24:55.135Z,35.63
2019-05-05T11:25:44.219Z,35.93
2019-05-05T11:26:41.596Z,34.81
2019-05-05T11:27:43.852Z,35.95
2019-05-05T11:28:41.584Z,36.55
2019-05-05T11:29:43.689Z,34.81
2019-05-05T11:30:41.565Z,35.63
2019-05-05T11:31:41.541Z,34.81
2019-05-05T11:32:41.532Z,35.22
2019-05-05T11:33:43.589Z,34.10
2019-05-05T11:34:41.509Z,34.31
2019-05-05T11:35:41.497Z,34.61
2019-05-05T11:36:41.487Z,32.98
2019-05-05T11:37:43.731Z,33.88
2019-05-05T11:38:41.892Z,34.17
2019-05-05T11:39:41.455Z,32.14
2019-05-05T11:40:41.442Z,33.87
2019-05-05T11:41:41.431Z,34.29
2019-05-05T11:42:41.420Z,34.49
2019-05-05T11:43:41.586Z,34.90
2019-05-05T11:44:41.400Z,34.49
2019-05-05T11:45:41.387Z,34.09
2019-05-05T11:46:41.376Z,34.70
2019-05-05T11:47:41.365Z,35.00
2019-05-05T11:48:41.360Z,35.60
2019-05-05T11:49:41.353Z,32.35
2019-05-05T11:50:43.485Z,32.57
2019-05-05T11:51:43.598Z,31.79
2019-05-05T11:52:41.309Z,33.32
2019-05-05T11:53:41.299Z,33.22
2019-05-05T11:54:41.297Z,32.60
2019-05-05T11:55:41.276Z,32.50
2019-05-05T11:56:41.265Z,33.22
2019-05-05T11:57:41.254Z,34.32
2019-05-05T11:58:41.244Z,32.59
2019-05-05T11:59:41.242Z,31.35
2019-05-05T12:00:41.223Z,29.83
2019-05-05T12:01:41.210Z,30.84
2019-05-05T12:02:41.198Z,28.19
2019-05-05T12:03:41.188Z,31.74
2019-05-05T12:04:41.186Z,30.02
2019-05-05T12:05:41.167Z,30.32
2019-05-05T12:06:41.153Z,30.52
2019-05-05T12:07:41.143Z,31.24
2019-05-05T12:08:43.617Z,31.76
2019-05-05T12:09:41.129Z,34.20
2019-05-05T12:10:41.116Z,34.81
2019-05-05T12:11:41.098Z,35.44
2019-05-05T12:12:41.088Z,37.17
2019-05-05T12:13:41.080Z,37.79
2019-05-05T12:14:41.081Z,36.85
2019-05-05T12:15:41.060Z,37.68
2019-05-05T12:16:41.050Z,38.99
2019-05-05T12:17:41.036Z,38.78
2019-05-05T12:18:41.068Z,37.66
2019-05-05T12:19:41.024Z,36.95
2019-05-05T12:20:41.003Z,36.56
2019-05-05T12:21:40.993Z,36.87
2019-05-05T12:22:40.981Z,37.38
2019-05-05T12:23:40.970Z,37.48
2019-05-05T12:24:40.967Z,36.87
2019-05-05T12:25:40.949Z,37.49
2019-05-05T12:26:40.939Z,38.21
2019-05-05T12:27:40.932Z,38.42
2019-05-05T12:28:40.918Z,38.42
2019-05-05T12:29:40.914Z,38.31
2019-05-05T12:30:40.896Z,39.23
2019-05-05T12:31:40.886Z,38.60
2019-05-05T12:32:40.882Z,38.09
2019-05-05T12:33:40.868Z,38.29
2019-05-05T12:34:40.976Z,38.21
2019-05-05T12:35:40.847Z,38.62
2019-05-05T12:36:40.832Z,38.92
2019-05-05T12:37:40.827Z,38.70
2019-05-05T12:38:40.859Z,38.60
2019-05-05T12:39:40.931Z,39.62
2019-05-05T12:40:40.798Z,38.19
2019-05-05T12:41:40.788Z,37.58
2019-05-05T12:42:40.769Z,37.79
2019-05-05T12:43:40.758Z,37.29
2019-05-05T12:44:40.813Z,38.21
2019-05-05T12:45:40.749Z,38.82
2019-05-05T12:46:40.727Z,37.80
2019-05-05T12:47:40.760Z,38.31
2019-05-05T12:48:40.706Z,38.82
2019-05-05T12:49:40.699Z,37.90
2019-05-05T12:50:40.694Z,38.62
2019-05-05T12:51:40.722Z,38.51
2019-05-05T12:52:40.697Z,39.04